Unai, Brazil
Current Conditions -  °F | °C
As of 2:00 PM on Thursday 27 Nov 2014 (Local Time) from SBBR Reporting Station
Rain Showers Rain Showers  
Wind Chill: 77°   Ceiling: 3000
Heat Index: 79°   Visibility: 6mi
Dew Point: 66°   Wind: 8mph
Humidity: 69%   Direction: 40°NE
Pressure: NA   Gusts: NA
Location:  16.36°S, 46.9°W
Report Text: SBBR 271600Z 04007KT 9999 VCSH BKN030 FEW040TCU BKN080 25/19 Q1016
Loading
Personal Weather Stations






























Interactive Weather Map New forecast layout! Learn more

10-Day Weather Forecast

Advertisements
Track Severe Weather on mobile